Terminal Aerodrome Forecast
Issued by NWS Kansas City/Pleasant Hill, MO

Home | Current Version | Previous Version | Text Only | Print | Product List | Glossary On
Versions: 1 2 3 4 5 6 7 8 9 10 11 12
600
FTUS43 KEAX 261722
TAFMCI
TAF
KMCI 261722Z 2618/2718 09010KT P6SM SCT040 SCT150
     FM270400 14006KT P6SM SCT250
     FM271500 17006KT P6SM SCT200=

USA.gov is the U.S. government's official web portal to all federal, state and local government web resources and services.